Time;durP1;ratioP1;P1;durP2;ratioP2;P2;SDS_P1;SDS_P2;PMS_P1;PMS_P2;Temp;Humidity;BMP_temperature;BMP_pressure;BME280_temperature;BME280_humidity;BME280_pressure;Samples;Min_cycle;Max_cycle;Signal;HPM_P1;HPM_P2
2023/01/27 00:01:51;;;;;;;;;43.50;35.25;;;;;5.62;53.32;98914.31;6217491;28;98770;-68
2023/01/27 00:04:55;;;;;;;;;42.25;35.25;;;;;5.70;53.21;98916.88;6210364;28;96739;-68
2023/01/27 00:07:59;;;;;;;;;47.00;38.00;;;;;5.70;53.15;98924.06;6228303;27;96528;-68
2023/01/27 00:14:34;;;;;;;;;44.80;35.20;;;;;5.60;53.03;98908.34;6162887;28;96759;-69
2023/01/27 00:17:38;;;;;;;;;42.60;33.40;;;;;5.65;52.79;98912.09;6163381;28;96796;-68
2023/01/27 00:27:26;;;;;;;;;40.60;33.00;;;;;5.72;52.68;98901.44;6155138;28;96509;-68
2023/01/27 00:30:29;;;;;;;;;48.00;37.40;;;;;5.78;52.62;98914.06;6141678;28;96756;-68
2023/01/27 00:33:31;;;;;;;;;49.20;38.80;;;;;5.81;52.64;98910.19;6146401;28;96479;-67
2023/01/27 00:36:37;;;;;;;;;48.00;39.00;;;;;5.82;52.50;98912.66;6162576;28;96815;-67
2023/01/27 00:39:40;;;;;;;;;47.80;37.80;;;;;5.84;52.53;98916.00;6129824;28;96358;-68
2023/01/27 00:42:45;;;;;;;;;39.60;33.60;;;;;5.76;52.01;98910.78;6128244;28;98585;-67
2023/01/27 00:45:51;;;;;;;;;46.40;37.00;;;;;5.76;51.87;98908.09;6145407;28;98407;-67
2023/01/27 00:48:54;;;;;;;;;44.60;35.80;;;;;5.76;52.13;98909.94;6193970;28;96918;-68
2023/01/27 00:51:59;;;;;;;;;40.75;33.00;;;;;5.77;52.08;98909.72;6221614;28;96684;-67
2023/01/27 00:55:03;;;;;;;;;44.40;36.60;;;;;5.84;51.98;98907.13;6232534;27;96992;-67
2023/01/27 00:58:06;;;;;;;;;35.25;31.00;;;;;5.80;51.90;98905.88;6224686;27;96220;-67
2023/01/27 01:01:12;;;;;;;;;45.20;33.00;;;;;5.84;51.69;98907.97;6227465;27;96337;-68
2023/01/27 01:04:15;;;;;;;;;38.50;32.75;;;;;5.84;51.62;98905.28;6239929;28;96261;-68
2023/01/27 01:07:22;;;;;;;;;37.60;32.00;;;;;5.80;51.51;98901.34;6255546;27;96476;-68
2023/01/27 01:10:26;;;;;;;;;39.60;32.80;;;;;5.83;51.38;98905.47;6221008;28;96643;-68
2023/01/27 01:13:29;;;;;;;;;36.20;32.00;;;;;5.78;51.63;98905.22;6230053;27;98512;-68
2023/01/27 01:16:32;;;;;;;;;37.00;32.00;;;;;5.60;51.82;98876.25;6207014;28;96635;-68
2023/01/27 01:19:36;;;;;;;;;34.80;31.80;;;;;5.67;51.76;98903.88;6220962;28;96338;-68
2023/01/27 01:22:41;;;;;;;;;39.40;33.40;;;;;5.72;51.80;98906.81;6225895;28;96506;-68
2023/01/27 01:25:52;;;;;;;;;43.00;34.40;;;;;5.54;51.90;98887.69;6239399;28;96331;-68
2023/01/27 01:28:55;;;;;;;;;42.40;34.80;;;;;5.65;51.92;98904.06;6250876;27;96900;-67
2023/01/27 01:31:59;;;;;;;;;36.25;32.00;;;;;5.64;52.09;98893.56;6217953;28;96994;-67
2023/01/27 01:35:02;;;;;;;;;36.00;30.50;;;;;5.57;52.01;98885.47;6231554;28;96279;-68
2023/01/27 01:38:08;;;;;;;;;42.25;33.75;;;;;5.26;52.64;98873.41;6253775;27;96926;-67
2023/01/27 01:41:14;;;;;;;;;43.25;35.00;;;;;5.41;52.92;98887.56;6239055;28;96297;-68
2023/01/27 01:44:19;;;;;;;;;42.80;35.40;;;;;5.45;52.65;98888.84;6254206;27;97030;-70
2023/01/27 01:47:23;;;;;;;;;45.60;35.00;;;;;5.34;53.00;98874.09;6234346;27;97684;-67
2023/01/27 01:50:26;;;;;;;;;40.00;32.60;;;;;5.55;52.90;98894.69;6218418;28;97581;-68
2023/01/27 01:53:37;;;;;;;;;42.00;35.00;;;;;5.62;52.66;98896.41;6227569;27;96306;-68
2023/01/27 01:56:46;;;;;;;;;45.00;38.00;;;;;5.68;52.88;98902.84;6237887;28;96647;-67
2023/01/27 01:59:54;;;;;;;;;47.50;37.00;;;;;5.73;52.66;98892.41;6220486;28;98209;-67
2023/01/27 02:02:57;;;;;;;;;39.75;35.00;;;;;5.69;52.64;98896.50;6196524;28;96965;-67
2023/01/27 02:06:01;;;;;;;;;41.00;34.00;;;;;5.51;52.47;98867.53;6243808;27;96579;-67
2023/01/27 02:09:07;;;;;;;;;42.75;35.00;;;;;5.70;52.78;98890.13;6219511;28;98946;-70
2023/01/27 02:12:11;;;;;;;;;45.00;35.00;;;;;5.72;52.73;98884.59;6222966;27;96646;-68
2023/01/27 02:15:15;;;;;;;;;42.40;34.80;;;;;5.68;52.75;98884.97;6245176;27;97389;-68
2023/01/27 02:18:18;;;;;;;;;45.00;36.00;;;;;5.75;52.64;98885.03;6221411;28;97371;-68
2023/01/27 02:21:21;;;;;;;;;48.60;38.00;;;;;5.78;52.66;98879.28;6231788;28;96349;-68
2023/01/27 02:24:34;;;;;;;;;45.25;36.25;;;;;5.76;52.65;98888.53;6238099;28;96948;-68
2023/01/27 02:27:40;;;;;;;;;45.40;37.00;;;;;5.70;52.80;98887.47;6206358;27;97143;-67
2023/01/27 02:30:43;;;;;;;;;43.00;35.00;;;;;5.53;52.84;98886.84;6226322;27;96932;-68
2023/01/27 02:33:47;;;;;;;;;47.00;36.00;;;;;5.61;52.72;98894.78;6218418;28;96426;-67
2023/01/27 02:36:54;;;;;;;;;48.00;39.00;;;;;5.47;53.10;98884.13;6236944;28;96378;-68
2023/01/27 02:40:01;;;;;;;;;43.20;35.00;;;;;5.58;52.88;98894.31;6236079;27;96594;-68
2023/01/27 02:43:06;;;;;;;;;45.80;36.00;;;;;5.60;52.73;98894.97;6219845;28;96429;-68
2023/01/27 02:46:09;;;;;;;;;45.80;37.80;;;;;5.63;52.72;98903.44;6237274;28;97055;-67
2023/01/27 02:49:13;;;;;;;;;41.00;33.00;;;;;5.70;52.53;98905.34;6230509;27;97802;-67
2023/01/27 02:52:16;;;;;;;;;45.80;37.40;;;;;5.65;52.34;98897.91;6206547;27;96985;-68
2023/01/27 02:55:20;;;;;;;;;45.33;35.00;;;;;5.60;52.29;98892.28;6206949;28;97100;-68
2023/01/27 02:58:27;;;;;;;;;45.00;35.00;;;;;5.61;52.26;98902.81;6213651;28;97558;-67
2023/01/27 03:01:37;;;;;;;;;43.60;36.00;;;;;5.66;52.28;98908.41;6230951;28;96408;-69
2023/01/27 03:04:40;;;;;;;;;43.20;33.80;;;;;5.70;52.18;98902.69;6236742;28;96568;-68
2023/01/27 03:07:44;;;;;;;;;40.25;33.50;;;;;5.72;52.39;98898.78;6240264;27;96748;-68
2023/01/27 03:10:50;;;;;;;;;44.40;36.00;;;;;5.73;52.18;98897.75;6201931;28;96959;-69
2023/01/27 03:13:58;;;;;;;;;43.20;35.40;;;;;5.75;52.09;98895.75;6236222;28;96337;-68
2023/01/27 03:20:22;;;;;;;;;40.60;32.20;;;;;5.58;51.95;98891.63;6203390;28;96353;-69
2023/01/27 03:23:26;;;;;;;;;45.67;36.00;;;;;5.55;52.35;98895.53;6244630;27;96235;-69
2023/01/27 03:26:30;;;;;;;;;45.00;36.00;;;;;5.48;52.56;98893.78;6218017;28;96816;-67
2023/01/27 03:32:57;;;;;;;;;43.80;33.40;;;;;5.51;52.61;98886.25;6209190;28;96853;-68
2023/01/27 03:46:31;;;;;;;;;41.00;35.00;;;;;5.52;52.19;98874.50;6204453;28;98413;-68
2023/01/27 03:49:34;;;;;;;;;43.00;33.00;;;;;5.52;51.96;98869.16;6217124;28;96525;-68
2023/01/27 03:52:38;;;;;;;;;38.00;33.00;;;;;5.33;52.16;98875.13;6229072;27;96311;-67
2023/01/27 03:55:42;;;;;;;;;33.00;28.60;;;;;5.28;51.98;98869.50;6217620;28;96325;-68
2023/01/27 03:58:45;;;;;;;;;37.80;32.00;;;;;5.36;52.07;98889.97;6232750;27;97921;-68
2023/01/27 04:01:50;;;;;;;;;36.20;32.20;;;;;5.35;51.99;98888.31;6237916;27;96746;-67
2023/01/27 04:08:14;;;;;;;;;38.25;31.25;;;;;5.53;51.61;98894.03;6234500;28;96379;-70
2023/01/27 04:14:40;;;;;;;;;36.75;32.00;;;;;5.53;51.07;98888.69;6237494;27;96255;-67
2023/01/27 04:17:45;;;;;;;;;32.00;30.00;;;;;5.45;50.88;98883.47;6237311;28;96586;-68
2023/01/27 04:20:49;;;;;;;;;34.00;30.00;;;;;5.52;50.43;98895.09;6237353;28;96368;-68
2023/01/27 04:23:52;;;;;;;;;34.00;30.00;;;;;5.52;50.81;98892.41;6238678;28;96754;-68
2023/01/27 04:26:57;;;;;;;;;36.40;32.00;;;;;5.57;50.51;98893.47;6238295;28;96117;-67
2023/01/27 04:30:01;;;;;;;;;33.20;27.20;;;;;5.55;50.28;98895.53;6237054;28;96830;-68
2023/01/27 04:33:09;;;;;;;;;39.20;32.20;;;;;5.48;50.17;98889.28;6244984;27;96986;-67
2023/01/27 04:36:13;;;;;;;;;32.67;29.67;;;;;5.51;50.22;98899.59;6228844;27;96322;-67
2023/01/27 04:39:17;;;;;;;;;32.40;28.20;;;;;5.48;50.27;98894.63;6225539;28;96444;-69
2023/01/27 04:42:20;;;;;;;;;34.00;32.00;;;;;5.47;50.37;98879.59;6229999;27;97084;-68
2023/01/27 04:45:23;;;;;;;;;36.60;32.00;;;;;5.51;50.04;98880.88;6211772;27;96642;-67
2023/01/27 04:48:28;;;;;;;;;36.75;32.75;;;;;5.55;50.09;98892.03;6239558;28;96491;-69
2023/01/27 04:51:32;;;;;;;;;35.40;29.40;;;;;5.53;49.99;98888.69;6239761;28;96555;-67
2023/01/27 04:54:36;;;;;;;;;26.80;24.40;;;;;5.50;50.01;98891.75;6239980;27;97273;-68
2023/01/27 04:57:39;;;;;;;;;33.80;30.00;;;;;5.59;50.22;98898.66;6233119;27;96530;-68
2023/01/27 05:00:43;;;;;;;;;37.00;32.00;;;;;5.58;49.91;98884.44;6218024;28;96680;-68
2023/01/27 05:03:47;;;;;;;;;32.20;29.60;;;;;5.64;49.84;98882.84;6237486;28;96372;-68
2023/01/27 05:06:51;;;;;;;;;36.00;31.00;;;;;5.64;49.97;98888.22;6259614;27;96935;-68
2023/01/27 05:09:54;;;;;;;;;33.40;29.80;;;;;5.62;49.94;98896.41;6233167;27;96337;-68
2023/01/27 05:12:58;;;;;;;;;31.00;29.00;;;;;5.60;50.00;98898.47;6226080;27;96590;-68
2023/01/27 05:16:11;;;;;;;;;32.25;30.75;;;;;5.49;50.10;98896.28;6238858;27;96406;-68
2023/01/27 05:19:15;;;;;;;;;34.50;30.50;;;;;5.52;50.82;98895.09;6225297;27;96614;-70
2023/01/27 05:22:19;;;;;;;;;30.20;27.80;;;;;5.52;50.22;98898.56;6231395;27;97048;-70
2023/01/27 05:25:22;;;;;;;;;35.40;30.40;;;;;5.55;50.01;98900.06;6233793;27;97077;-67
2023/01/27 05:28:26;;;;;;;;;31.00;28.00;;;;;5.60;49.58;98895.78;6244354;27;96458;-69
2023/01/27 05:31:31;;;;;;;;;39.00;33.00;;;;;5.64;49.40;98901.59;6238767;27;97431;-67
2023/01/27 05:34:36;;;;;;;;;33.00;29.00;;;;;5.60;48.91;98895.78;6216402;27;97251;-68
2023/01/27 05:37:39;;;;;;;;;32.40;29.40;;;;;5.57;48.78;98898.81;6217766;27;97298;-68
2023/01/27 05:40:42;;;;;;;;;37.60;32.40;;;;;5.56;49.21;98907.88;6245663;27;97054;-68
2023/01/27 05:43:50;;;;;;;;;30.25;26.00;;;;;5.51;49.12;98904.97;6236019;27;96355;-68
2023/01/27 05:46:54;;;;;;;;;35.20;29.60;;;;;5.56;48.96;98909.72;6237093;27;96776;-70
2023/01/27 05:49:58;;;;;;;;;30.40;27.80;;;;;5.60;49.05;98913.69;6249899;27;97793;-68
2023/01/27 05:53:02;;;;;;;;;34.25;30.00;;;;;5.54;48.64;98903.72;6235889;28;96731;-69
2023/01/27 05:56:07;;;;;;;;;38.60;31.20;;;;;5.59;48.86;98909.34;6213616;27;96951;-68
2023/01/27 05:59:11;;;;;;;;;36.00;32.00;;;;;5.50;48.69;98905.97;6231019;27;97572;-68
2023/01/27 06:02:15;;;;;;;;;34.00;30.00;;;;;5.47;48.96;98918.91;6231268;27;96048;-68
2023/01/27 06:05:20;;;;;;;;;33.40;30.00;;;;;5.45;49.20;98920.91;6245354;27;96236;-68
2023/01/27 06:08:24;;;;;;;;;34.00;29.50;;;;;5.48;49.05;98918.69;6237741;28;96617;-68
2023/01/27 06:11:28;;;;;;;;;34.50;30.50;;;;;5.38;49.08;98899.44;6235659;27;96444;-67
2023/01/27 06:14:31;;;;;;;;;38.00;32.00;;;;;5.55;49.26;98924.13;6232049;27;96933;-68
2023/01/27 06:17:34;;;;;;;;;35.80;31.80;;;;;5.63;49.09;98930.16;6235887;28;96467;-68
2023/01/27 06:20:39;;;;;;;;;36.25;31.00;;;;;5.65;49.06;98927.31;6235020;27;96193;-69
2023/01/27 06:23:43;;;;;;;;;33.40;30.00;;;;;5.73;48.99;98929.03;6206768;28;98730;-69
2023/01/27 06:26:46;;;;;;;;;36.75;31.75;;;;;5.78;48.34;98926.63;6235941;28;96492;-69
2023/01/27 06:29:49;;;;;;;;;36.00;32.00;;;;;5.68;48.61;98932.28;6233074;28;96270;-69
2023/01/27 06:32:53;;;;;;;;;38.40;32.00;;;;;5.72;48.77;98930.06;6234016;27;96786;-69
2023/01/27 06:36:02;;;;;;;;;39.25;33.25;;;;;5.63;49.08;98940.88;6229838;27;96448;-69
2023/01/27 06:39:05;;;;;;;;;36.80;32.80;;;;;5.62;49.10;98935.69;6235337;28;96465;-68
2023/01/27 06:42:09;;;;;;;;;38.50;32.25;;;;;5.68;49.03;98938.47;6237383;28;96238;-69
2023/01/27 06:45:13;;;;;;;;;38.50;32.00;;;;;5.75;48.54;98935.88;6219457;28;96491;-68
2023/01/27 06:48:16;;;;;;;;;39.75;32.75;;;;;5.63;48.51;98930.16;6237354;28;96871;-68
2023/01/27 06:51:21;;;;;;;;;44.75;35.00;;;;;5.69;48.43;98939.28;6211099;27;97140;-69
2023/01/27 06:54:24;;;;;;;;;36.50;32.50;;;;;5.72;48.54;98946.94;6234262;28;96870;-69
2023/01/27 06:57:27;;;;;;;;;39.40;33.00;;;;;5.76;48.54;98950.06;6233120;28;96272;-68
2023/01/27 07:00:31;;;;;;;;;39.00;32.00;;;;;5.80;48.19;98943.31;6240734;27;96354;-68
2023/01/27 07:03:34;;;;;;;;;38.00;32.80;;;;;5.87;47.98;98941.56;6233821;28;96891;-67
2023/01/27 07:06:39;;;;;;;;;38.00;33.00;;;;;5.88;48.07;98946.72;6218010;28;96495;-68
2023/01/27 07:09:42;;;;;;;;;37.00;33.00;;;;;5.78;47.74;98943.50;6232156;28;96390;-68
2023/01/27 07:13:04;;;;;;;;;37.00;32.00;;;;;5.85;48.19;98948.94;6236559;27;96303;-68
2023/01/27 07:16:08;;;;;;;;;35.20;31.00;;;;;5.83;47.86;98942.94;6240437;27;96241;-67
2023/01/27 07:19:12;;;;;;;;;40.00;35.00;;;;;5.60;48.13;98925.22;6226870;28;96449;-67
2023/01/27 07:22:17;;;;;;;;;42.00;34.00;;;;;5.74;47.73;98942.22;6230315;27;96286;-68
2023/01/27 07:25:20;;;;;;;;;37.60;32.80;;;;;5.80;47.65;98954.03;6238412;27;96902;-68
2023/01/27 07:28:23;;;;;;;;;35.75;32.00;;;;;5.86;47.92;98956.78;6237518;27;97550;-68
2023/01/27 07:31:27;;;;;;;;;42.40;34.40;;;;;5.93;47.73;98952.34;6241528;27;97458;-68
2023/01/27 07:34:30;;;;;;;;;36.60;31.60;;;;;5.96;47.31;98956.50;6239802;27;96509;-67
2023/01/27 07:37:35;;;;;;;;;39.00;32.00;;;;;5.96;47.37;98953.81;6235618;27;96506;-67
2023/01/27 07:40:40;;;;;;;;;33.60;31.00;;;;;5.91;47.35;98953.56;6216245;28;97230;-68
2023/01/27 07:43:43;;;;;;;;;37.60;33.40;;;;;5.92;47.50;98963.22;6235919;27;97026;-69
2023/01/27 07:46:49;;;;;;;;;30.50;27.50;;;;;5.91;47.56;98967.75;6218335;27;96275;-69
2023/01/27 07:49:52;;;;;;;;;38.00;31.67;;;;;5.92;47.46;98976.59;6230426;28;96717;-68
2023/01/27 07:53:00;;;;;;;;;34.60;30.60;;;;;5.92;47.06;98969.41;6245043;27;96707;-69
2023/01/27 07:56:04;;;;;;;;;33.00;30.40;;;;;5.89;47.41;98963.59;6228910;28;96741;-68
2023/01/27 07:59:09;;;;;;;;;33.00;29.00;;;;;5.93;47.25;98976.41;6236643;28;96281;-69
2023/01/27 08:02:13;;;;;;;;;33.00;30.75;;;;;5.97;47.31;98975.00;6239619;27;96616;-69
2023/01/27 08:05:16;;;;;;;;;31.40;28.80;;;;;5.86;47.03;98972.81;6219191;28;96599;-69
2023/01/27 08:08:21;;;;;;;;;35.00;30.33;;;;;5.92;47.01;98968.56;6218559;28;96656;-69
2023/01/27 08:11:24;;;;;;;;;38.33;33.00;;;;;5.89;47.04;98967.13;6233683;28;96459;-67
2023/01/27 08:14:27;;;;;;;;;32.00;29.00;;;;;5.88;46.84;98978.84;6236513;27;96228;-67
2023/01/27 08:17:30;;;;;;;;;34.25;29.00;;;;;5.89;46.82;98977.00;6232699;27;96301;-67
2023/01/27 08:20:34;;;;;;;;;32.00;29.00;;;;;5.93;46.92;98976.41;6234346;27;96381;-67
2023/01/27 08:23:38;;;;;;;;;36.00;32.00;;;;;5.94;46.75;98983.44;6214981;27;97353;-68
2023/01/27 08:26:42;;;;;;;;;31.50;27.25;;;;;5.89;46.81;98985.00;6236446;27;96550;-67
2023/01/27 08:29:45;;;;;;;;;40.80;32.80;;;;;5.78;47.15;98983.63;6238721;27;96593;-68
2023/01/27 08:32:49;;;;;;;;;36.67;33.00;;;;;5.89;47.01;98985.84;6237249;28;96648;-68
2023/01/27 08:35:52;;;;;;;;;40.00;34.00;;;;;6.00;46.66;98989.88;6235577;27;96194;-68
2023/01/27 08:38:57;;;;;;;;;36.80;32.00;;;;;6.06;46.54;98995.28;6239454;28;96398;-68
2023/01/27 08:42:00;;;;;;;;;37.60;31.60;;;;;6.09;46.71;98988.72;6244166;27;96460;-67
2023/01/27 08:45:04;;;;;;;;;31.00;29.60;;;;;6.24;46.14;98994.03;6236096;27;96886;-67
2023/01/27 08:48:13;;;;;;;;;28.80;26.40;;;;;6.15;46.15;98993.34;6239087;28;96269;-68
2023/01/27 08:51:16;;;;;;;;;32.00;30.00;;;;;6.08;46.76;98997.78;6239887;28;96391;-67
2023/01/27 08:54:21;;;;;;;;;44.40;35.00;;;;;6.12;46.69;99006.25;6205805;28;96601;-66
2023/01/27 08:57:24;;;;;;;;;35.20;30.20;;;;;6.30;46.35;99009.34;6220665;28;96681;-68
2023/01/27 09:00:27;;;;;;;;;39.00;33.00;;;;;6.41;46.31;98998.09;6219789;28;98319;-67
2023/01/27 09:03:34;;;;;;;;;34.00;32.00;;;;;6.43;46.02;99002.25;6234320;27;96399;-67
2023/01/27 09:06:37;;;;;;;;;41.00;33.00;;;;;6.53;46.13;98996.56;6232980;27;97603;-67
2023/01/27 09:09:42;;;;;;;;;36.20;30.60;;;;;6.61;45.96;98992.91;6219542;28;96326;-68
2023/01/27 09:12:45;;;;;;;;;33.60;31.00;;;;;6.53;45.73;98985.84;6239120;28;96330;-67
2023/01/27 09:15:52;;;;;;;;;38.20;32.80;;;;;6.69;45.83;98993.63;6250777;27;96444;-68
2023/01/27 09:18:56;;;;;;;;;42.25;35.25;;;;;6.73;45.85;99004.75;6239176;27;96340;-68
2023/01/27 09:21:59;;;;;;;;;39.50;33.25;;;;;6.79;45.60;98999.44;6231035;27;97224;-68
2023/01/27 09:25:05;;;;;;;;;36.00;32.00;;;;;6.83;45.66;99002.56;6226125;27;96612;-68
2023/01/27 09:28:15;;;;;;;;;41.80;32.00;;;;;6.85;45.12;99009.38;6235898;27;96989;-68
2023/01/27 09:31:19;;;;;;;;;40.00;34.00;;;;;6.77;45.29;99006.84;6234684;27;96645;-68
2023/01/27 09:34:23;;;;;;;;;42.40;34.00;;;;;6.70;45.48;98997.91;6218782;28;97227;-68
2023/01/27 09:37:26;;;;;;;;;39.60;33.00;;;;;6.73;45.50;99010.94;6237430;28;96221;-67
2023/01/27 09:40:34;;;;;;;;;42.00;34.40;;;;;6.88;45.71;99008.19;6234135;28;96466;-68
2023/01/27 09:43:54;;;;;;;;;40.00;33.40;;;;;6.85;45.45;99003.19;6233340;27;96327;-68
2023/01/27 09:47:22;;;;;;;;;41.40;33.40;;;;;6.84;45.41;98999.69;6238155;28;96859;-68
2023/01/27 09:50:39;;;;;;;;;42.40;35.00;;;;;6.69;45.97;99001.66;6239502;27;96210;-67
2023/01/27 09:54:13;;;;;;;;;43.50;36.25;;;;;6.77;46.25;98995.31;6243967;27;96829;-67
2023/01/27 09:57:28;;;;;;;;;42.80;35.40;;;;;6.83;46.36;98997.22;6235540;27;97093;-68
2023/01/27 10:00:45;;;;;;;;;44.40;36.00;;;;;6.95;46.22;98985.75;6236166;27;96326;-68
2023/01/27 10:04:03;;;;;;;;;47.75;38.75;;;;;7.05;46.08;98988.06;6238956;27;96448;-68
2023/01/27 10:07:32;;;;;;;;;42.25;34.25;;;;;7.18;45.91;98982.81;6237820;27;97032;-66
2023/01/27 10:10:57;;;;;;;;;40.60;34.00;;;;;7.31;45.57;98982.03;6234601;27;96252;-67
2023/01/27 10:14:18;;;;;;;;;42.40;35.60;;;;;7.38;44.83;98991.75;6234940;27;96679;-67
2023/01/27 10:17:34;;;;;;;;;36.75;32.00;;;;;7.36;44.86;98976.91;6242273;27;96485;-68
2023/01/27 10:20:46;;;;;;;;;41.00;34.50;;;;;7.39;45.34;98980.03;6234827;28;96299;-66
2023/01/27 10:24:01;;;;;;;;;43.20;34.60;;;;;7.34;45.28;98985.16;6218097;28;96848;-68
2023/01/27 10:27:12;;;;;;;;;40.00;34.60;;;;;7.34;45.48;98976.28;6225849;28;96358;-67
2023/01/27 10:30:26;;;;;;;;;43.80;35.80;;;;;7.08;45.03;98970.78;6235473;28;97015;-67
2023/01/27 10:33:49;;;;;;;;;44.40;36.00;;;;;7.13;45.54;98976.38;6238644;27;97232;-67
2023/01/27 10:37:01;;;;;;;;;42.60;35.60;;;;;7.21;45.80;98973.53;6235571;27;96390;-69
2023/01/27 10:40:12;;;;;;;;;45.80;38.00;;;;;7.31;45.68;98966.78;6231862;27;96743;-67
2023/01/27 10:43:25;;;;;;;;;40.60;33.60;;;;;7.38;45.84;98982.88;6230956;27;96554;-67
2023/01/27 10:46:43;;;;;;;;;38.60;34.00;;;;;7.45;45.29;98974.88;6233145;28;96666;-67
2023/01/27 10:49:51;;;;;;;;;41.25;35.00;;;;;7.55;45.56;98981.53;6212744;27;97948;-67
2023/01/27 10:53:01;;;;;;;;;43.40;34.40;;;;;7.56;45.19;98977.84;6231180;27;96239;-68
2023/01/27 10:56:11;;;;;;;;;37.00;31.80;;;;;7.39;45.10;98977.34;6234767;27;97465;-68
2023/01/27 10:59:22;;;;;;;;;43.00;34.75;;;;;7.22;45.41;98976.03;6231183;27;96084;-68
2023/01/27 11:02:37;;;;;;;;;41.00;33.20;;;;;7.19;45.90;98963.00;6228852;27;96770;-69
2023/01/27 11:05:45;;;;;;;;;40.25;32.50;;;;;7.21;45.57;98974.38;6226478;27;96584;-68
2023/01/27 11:08:53;;;;;;;;;47.00;36.50;;;;;7.29;45.79;98976.03;6233913;28;96538;-68
2023/01/27 11:12:01;;;;;;;;;37.40;32.40;;;;;7.33;45.69;98980.00;6234217;27;96429;-69
2023/01/27 11:15:17;;;;;;;;;40.40;33.60;;;;;7.35;45.75;98983.28;6234740;28;96419;-68
2023/01/27 11:18:27;;;;;;;;;39.80;33.00;;;;;7.28;45.69;98980.56;6237172;28;96208;-68
2023/01/27 11:21:33;;;;;;;;;40.00;32.40;;;;;7.22;45.83;98975.19;6235737;28;96960;-66
2023/01/27 11:24:44;;;;;;;;;40.75;33.75;;;;;7.25;45.88;98974.78;6226692;28;96560;-67
2023/01/27 11:28:05;;;;;;;;;43.80;35.00;;;;;7.29;45.95;98976.88;6216832;28;96945;-66
2023/01/27 11:31:20;;;;;;;;;40.00;33.00;;;;;7.09;45.83;98964.38;6235291;28;96994;-67
2023/01/27 11:34:31;;;;;;;;;46.60;37.00;;;;;7.23;46.32;98976.84;6223040;27;96276;-68
2023/01/27 11:37:37;;;;;;;;;44.40;35.00;;;;;7.23;45.73;98985.69;6217463;28;98714;-67
2023/01/27 11:40:41;;;;;;;;;45.00;36.00;;;;;7.09;46.09;98986.66;6231731;27;96473;-68
2023/01/27 11:43:44;;;;;;;;;40.00;34.00;;;;;7.00;46.61;98974.44;6234856;28;96875;-67
2023/01/27 11:46:49;;;;;;;;;44.00;36.00;;;;;7.06;46.73;98984.38;6218100;28;96554;-67
2023/01/27 11:49:56;;;;;;;;;41.80;35.40;;;;;6.96;46.91;98978.53;6230810;28;96881;-68
2023/01/27 11:53:10;;;;;;;;;42.80;35.80;;;;;6.85;47.51;98977.22;6230857;27;96596;-67
2023/01/27 11:56:18;;;;;;;;;43.50;35.50;;;;;6.93;47.17;98976.25;6197535;28;99051;-68
2023/01/27 11:59:25;;;;;;;;;45.00;36.00;;;;;6.93;47.40;98966.38;6214316;27;99616;-68
2023/01/27 12:02:35;;;;;;;;;47.00;36.00;;;;;6.93;47.36;98979.78;6231304;28;96333;-67
2023/01/27 12:05:45;;;;;;;;;44.00;34.20;;;;;6.84;47.60;98982.78;6233927;28;96255;-67
2023/01/27 12:08:49;;;;;;;;;48.33;38.00;;;;;6.82;47.94;98974.13;6232297;27;96540;-67
2023/01/27 12:12:10;;;;;;;;;45.40;37.80;;;;;6.80;48.04;98979.66;6230268;28;96432;-67
2023/01/27 12:15:16;;;;;;;;;44.40;36.40;;;;;6.63;48.15;98956.88;6214148;28;97031;-68
2023/01/27 12:18:22;;;;;;;;;45.00;37.00;;;;;6.81;48.24;98964.41;6219611;28;96187;-67
2023/01/27 12:21:39;;;;;;;;;47.60;38.40;;;;;6.95;48.58;98971.50;6232418;28;97149;-67
2023/01/27 12:24:49;;;;;;;;;44.50;36.75;;;;;7.00;48.26;98978.97;6232332;28;96465;-67
2023/01/27 12:27:57;;;;;;;;;45.25;38.25;;;;;6.99;48.56;98972.78;6232332;28;96240;-67
2023/01/27 12:31:06;;;;;;;;;45.80;36.00;;;;;7.00;48.43;98971.75;6224080;28;96635;-67
2023/01/27 12:34:23;;;;;;;;;41.60;35.00;;;;;6.94;48.50;98969.84;6231919;27;97954;-67
2023/01/27 12:37:33;;;;;;;;;49.00;39.00;;;;;6.88;48.95;98968.81;6233735;27;96409;-68
2023/01/27 12:40:41;;;;;;;;;47.20;38.00;;;;;6.88;48.94;98968.81;6234779;28;96729;-68
2023/01/27 12:43:53;;;;;;;;;45.40;37.80;;;;;6.94;49.39;98967.16;6233109;28;96495;-67
2023/01/27 12:47:00;;;;;;;;;49.00;39.00;;;;;7.03;48.97;98971.38;6228139;28;96834;-68
2023/01/27 12:50:22;;;;;;;;;47.40;38.00;;;;;6.89;48.87;98961.59;6233017;28;96314;-69
2023/01/27 12:53:27;;;;;;;;;44.20;36.20;;;;;6.91;49.31;98964.91;6232078;28;97012;-70
2023/01/27 12:56:34;;;;;;;;;48.40;39.00;;;;;6.92;49.24;98964.72;6215018;28;96869;-67
2023/01/27 12:59:48;;;;;;;;;45.00;37.00;;;;;6.81;49.49;98965.25;6238297;27;96420;-67
2023/01/27 13:02:55;;;;;;;;;47.80;38.20;;;;;6.85;49.35;98971.84;6218265;27;98599;-68
2023/01/27 13:06:00;;;;;;;;;45.00;37.75;;;;;6.84;49.55;98966.72;6239472;27;96545;-68
2023/01/27 13:09:05;;;;;;;;;41.60;35.00;;;;;6.90;49.60;98963.22;6239556;27;96492;-68
2023/01/27 13:12:16;;;;;;;;;44.40;36.00;;;;;6.71;49.62;98967.44;6232144;28;96932;-67
2023/01/27 13:15:23;;;;;;;;;45.20;36.20;;;;;6.88;49.32;98958.09;6233777;27;97056;-68
2023/01/27 13:18:33;;;;;;;;;47.00;37.00;;;;;6.86;49.40;98967.34;6234681;28;97957;-67
2023/01/27 13:21:38;;;;;;;;;48.25;38.50;;;;;6.85;49.64;98966.50;6232286;28;96802;-67
2023/01/27 13:24:46;;;;;;;;;44.00;34.20;;;;;6.95;49.37;98968.84;6233220;28;96215;-68
2023/01/27 13:27:53;;;;;;;;;35.25;30.75;;;;;7.00;48.74;98973.59;6234680;28;96539;-68
2023/01/27 13:31:03;;;;;;;;;47.00;38.00;;;;;6.95;49.10;98969.66;6234411;28;96450;-67
2023/01/27 13:34:17;;;;;;;;;45.40;38.00;;;;;6.92;49.37;98967.38;6236168;27;97046;-67
2023/01/27 13:37:28;;;;;;;;;45.80;37.60;;;;;6.80;49.02;98974.28;6213945;28;97310;-69
2023/01/27 13:40:40;;;;;;;;;42.80;35.80;;;;;6.88;49.21;98971.50;6230764;28;96068;-68
2023/01/27 13:43:52;;;;;;;;;45.50;38.00;;;;;6.89;48.92;98977.69;6229971;28;96899;-68
2023/01/27 13:47:01;;;;;;;;;38.00;33.00;;;;;6.85;48.84;98982.56;6229877;28;96247;-67
2023/01/27 13:50:16;;;;;;;;;44.40;35.40;;;;;6.75;49.17;98983.94;6246982;28;96954;-65
2023/01/27 13:53:20;;;;;;;;;42.40;35.00;;;;;6.93;49.76;98986.97;6259681;27;96077;-65
2023/01/27 13:56:36;;;;;;;;;45.75;36.00;;;;;6.98;49.18;98984.53;6238986;27;96575;-65
2023/01/27 13:59:48;;;;;;;;;43.80;35.00;;;;;7.03;49.06;98997.34;6234883;27;96289;-65
2023/01/27 14:03:14;;;;;;;;;44.60;35.60;;;;;7.03;48.79;98990.13;6233690;28;96411;-65
2023/01/27 14:06:37;;;;;;;;;42.50;35.00;;;;;7.08;48.63;98997.59;6246252;27;97492;-65
2023/01/27 14:09:53;;;;;;;;;42.00;35.00;;;;;7.02;48.89;98993.00;6244198;27;97153;-64
2023/01/27 14:13:09;;;;;;;;;43.80;35.00;;;;;6.97;49.02;98991.75;6236016;27;96534;-65
2023/01/27 14:16:20;;;;;;;;;43.50;36.00;;;;;6.89;48.82;98999.91;6237643;27;96489;-65
2023/01/27 14:19:35;;;;;;;;;50.50;41.00;;;;;6.99;49.06;98990.72;6237148;27;96192;-65
2023/01/27 14:22:47;;;;;;;;;45.20;36.20;;;;;6.98;49.02;98995.25;6233886;28;96387;-66
2023/01/27 14:25:59;;;;;;;;;48.00;35.00;;;;;7.05;48.89;99001.47;6223301;28;96514;-69
2023/01/27 14:29:13;;;;;;;;;45.00;37.00;;;;;7.04;48.69;98994.44;6213107;28;97119;-70
2023/01/27 14:32:28;;;;;;;;;41.80;34.60;;;;;7.09;48.84;98997.38;6224862;27;96424;-67
2023/01/27 14:35:42;;;;;;;;;43.20;36.00;;;;;7.13;48.63;98992.47;6228425;28;96620;-66
2023/01/27 14:38:59;;;;;;;;;40.50;35.00;;;;;7.01;49.05;98994.84;6232236;28;96322;-66
2023/01/27 14:42:12;;;;;;;;;42.00;33.80;;;;;7.02;48.40;98998.38;6233551;28;96453;-65
2023/01/27 14:45:23;;;;;;;;;47.00;38.00;;;;;7.04;48.43;99005.19;6234996;28;96336;-65
2023/01/27 14:48:42;;;;;;;;;42.80;34.00;;;;;6.96;48.36;99003.50;6228771;27;96303;-66
2023/01/27 14:51:51;;;;;;;;;45.00;36.00;;;;;6.95;48.03;99012.53;6237478;28;96909;-66
2023/01/27 14:55:15;;;;;;;;;41.50;33.50;;;;;6.87;48.02;99006.50;6230016;28;96285;-66
2023/01/27 14:58:34;;;;;;;;;45.50;36.25;;;;;6.82;48.55;99015.13;6226931;28;96497;-66
2023/01/27 15:01:47;;;;;;;;;39.80;33.00;;;;;6.72;48.52;99024.53;6234399;27;96981;-66
2023/01/27 15:05:01;;;;;;;;;37.50;32.75;;;;;6.69;48.58;99028.44;6225526;28;96871;-67